CSCL Dalian — VRBH4 — position and weather

sailwx.info

Track history (hours):
 
Tides and Currents Weather Stations Pressure Air Temp Water Temp Dewpoint Dewpoint Depression Visibility Wind Speed Wind Dir Waves Ship Positions

CSCL Dalian

Last reported at 2014-Nov-23 18:00 UTC. Time now 2014-Nov-24 03:49 UTC.
Position N 25°12' W 045°42'.

Length 259.8 m; ; draft 11 m.

Type: Cargo ship. MMSI: 477014600.

Wind from 070 at 13 knots

Barometer 1021.1 mb
Air temperature 24.0 ° C
Visibility: greater than 10.8 NM
Dewpoint 19.4 ° C
Water temperature 26.0 ° C

Date/timePositionNaut miles runAvg speedWind from/ knotsBaromVisibWave heightAir tempDewpointWater temp
2014-Nov-23 18:00N 25°12' W 045°42'9616.0 070 / 131021.110.8 24.019.426.0
2014-Nov-23 12:00N 25°54' W 044°06'18615.5 050 / 51022.110.8 23.019.924.0
2014-Nov-23 00:00N 27°18' W 041°00'18715.6 330 / 51022.110.8 23.018.324.0
2014-Nov-22 12:00N 28°36' W 037°48'18715.6 060 / 51020.110.8 25.022.025.0
2014-Nov-22 00:00N 29°48' W 034°30'40316.8 310 / 101020.1 5.4 23.019.924.0
2014-Nov-21 00:00N 32°00' W 027°06'17114.2 280 / 151011.1 5.4 19.015.720.0
2014-Nov-20 12:00N 32°54' W 023°54'18415.3 280 / 141007.110.8 18.012.718.0
2014-Nov-20 00:00N 33°48' W 020°24'74815.1 270 / 101004.1 5.4 18.012.718.0
2014-Nov-17 22:33N 36°01' W 005°26'1312.7
2014-Nov-17 21:33N 36°03' W 005°11'21013.9
2014-Nov-17 06:23N 37°13' W 001°04'1315.5
2014-Nov-17 05:33N 37°22' W 000°51'1615.8
2014-Nov-17 04:33N 37°33' W 000°37'1515.6
2014-Nov-17 03:33N 37°45' W 000°25'1615.6
2014-Nov-17 02:34N 37°58' W 000°14'8212.7
2014-Nov-16 20:04N 39°20' W 000°10'713.9
2014-Nov-16 19:32N 39°25' W 000°17'2 1.9
2014-Nov-16 18:31N 39°27' W 000°19'0 0.0
2014-Nov-16 17:31N 39°27' W 000°19'0 0.0
2014-Nov-16 16:31N 39°27' W 000°19'0 0.0
2014-Nov-16 15:28N 39°27' W 000°19'0 0.0
2014-Nov-16 14:16N 39°27' W 000°19'0 0.0
2014-Nov-16 13:31N 39°27' W 000°19'0 0.0
2014-Nov-16 12:31N 39°27' W 000°19'0 0.0
2014-Nov-16 11:31N 39°27' W 000°19'0 0.0
2014-Nov-16 10:31N 39°27' W 000°19'0 0.0
2014-Nov-16 09:31N 39°27' W 000°19'0 0.0
2014-Nov-16 08:31N 39°27' W 000°19'0 0.0
2014-Nov-16 07:33N 39°27' W 000°19'0 0.0
2014-Nov-16 06:33N 39°27' W 000°19'0 0.0
2014-Nov-16 05:33N 39°27' W 000°19'5 4.8
2014-Nov-16 04:33N 39°25' W 000°13'1111.4
2014-Nov-16 03:33N 39°27' E 000°02'57 6.3
2014-Nov-15 18:31N 39°60' E 001°02'1010.9
2014-Nov-15 17:33N 40°09' E 001°10'1111.4
2014-Nov-15 16:33N 40°18' E 001°18'1212.1
2014-Nov-15 15:33N 40°28' E 001°27'1212.0
2014-Nov-15 14:33N 40°38' E 001°36'1211.8
2014-Nov-15 13:33N 40°48' E 001°45'1111.3
2014-Nov-15 12:33N 40°57' E 001°53'1111.1
2014-Nov-15 11:33N 41°06' E 002°02'16 3.0
2014-Nov-15 06:07N 41°21' E 002°10'0 0.0
2014-Nov-15 03:29N 41°21' E 002°10'0 0.0
2014-Nov-15 02:31N 41°21' E 002°10'0 0.0
2014-Nov-15 00:28N 41°21' E 002°10'5 1.4
2014-Nov-14 21:10N 41°17' E 002°12'1 0.9
2014-Nov-14 20:16N 41°17' E 002°14'5 6.8
2014-Nov-14 19:33N 41°17' E 002°20'8 8.1
2014-Nov-14 18:33N 41°17' E 002°31'9 8.7
2014-Nov-14 17:33N 41°23' E 002°40'9 9.1
2014-Nov-14 16:33N 41°29' E 002°49'11 9.0
2014-Nov-14 15:18N 41°36' E 003°00'7 8.7
2014-Nov-14 14:30N 41°41' E 003°07'25 8.4
2014-Nov-14 11:31N 41°57' E 003°32'9 8.6
2014-Nov-14 10:31N 42°04' E 003°40'9 8.9
2014-Nov-14 09:34N 42°10' E 003°48'1310.6
2014-Nov-14 08:19N 42°20' E 004°00'1210.7
2014-Nov-14 07:13N 42°29' E 004°11'4011.0
2014-Nov-14 03:33N 42°59' E 004°47'1313.4
2014-Nov-14 02:33N 43°10' E 004°58'1313.2
2014-Nov-14 01:33N 43°23' E 004°57'5 4.8
2014-Nov-14 00:31N 43°25' E 004°51'0 0.0
2014-Nov-13 23:25N 43°25' E 004°51'0 0.0
2014-Nov-13 22:31N 43°25' E 004°51'0 0.0
2014-Nov-13 21:31N 43°25' E 004°51'0 0.0
2014-Nov-13 20:31N 43°25' E 004°51'0 0.0
2014-Nov-13 19:31N 43°25' E 004°51'0 0.0
2014-Nov-13 18:31N 43°25' E 004°51'  
Track history (hours):
 
Tides and Currents Weather Stations Pressure Air Temp Water Temp Dewpoint Dewpoint Depression Visibility Wind Speed Wind Dir Waves Ship Positions

CSCL Dalian

Last reported at 2014-Nov-23 18:00 UTC. Time now 2014-Nov-24 03:49 UTC.
Position N 25°12' W 045°42'.

Length 259.8 m; ; draft 11 m.

Type: Cargo ship. MMSI: 477014600.

Wind from 070 at 13 knots

Barometer 1021.1 mb
Air temperature 24.0 ° C
Visibility: greater than 10.8 NM
Dewpoint 19.4 ° C
Water temperature 26.0 ° C

Date/timePositionNaut miles runAvg speedWind from/ knotsBaromVisibWave heightAir tempDewpointWater temp
2014-Nov-23 18:00N 25°12' W 045°42'9616.0 070 / 131021.110.8 24.019.426.0
2014-Nov-23 12:00N 25°54' W 044°06'18615.5 050 / 51022.110.8 23.019.924.0
2014-Nov-23 00:00N 27°18' W 041°00'18715.6 330 / 51022.110.8 23.018.324.0
2014-Nov-22 12:00N 28°36' W 037°48'18715.6 060 / 51020.110.8 25.022.025.0
2014-Nov-22 00:00N 29°48' W 034°30'40316.8 310 / 101020.1 5.4 23.019.924.0
2014-Nov-21 00:00N 32°00' W 027°06'17114.2 280 / 151011.1 5.4 19.015.720.0
2014-Nov-20 12:00N 32°54' W 023°54'18415.3 280 / 141007.110.8 18.012.718.0
2014-Nov-20 00:00N 33°48' W 020°24'74815.1 270 / 101004.1 5.4 18.012.718.0
2014-Nov-17 22:33N 36°01' W 005°26'1312.7
2014-Nov-17 21:33N 36°03' W 005°11'21013.9
2014-Nov-17 06:23N 37°13' W 001°04'1315.5
2014-Nov-17 05:33N 37°22' W 000°51'1615.8
2014-Nov-17 04:33N 37°33' W 000°37'1515.6
2014-Nov-17 03:33N 37°45' W 000°25'1615.6
2014-Nov-17 02:34N 37°58' W 000°14'8212.7
2014-Nov-16 20:04N 39°20' W 000°10'713.9
2014-Nov-16 19:32N 39°25' W 000°17'2 1.9
2014-Nov-16 18:31N 39°27' W 000°19'0 0.0
2014-Nov-16 17:31N 39°27' W 000°19'0 0.0
2014-Nov-16 16:31N 39°27' W 000°19'0 0.0
2014-Nov-16 15:28N 39°27' W 000°19'0 0.0
2014-Nov-16 14:16N 39°27' W 000°19'0 0.0
2014-Nov-16 13:31N 39°27' W 000°19'0 0.0
2014-Nov-16 12:31N 39°27' W 000°19'0 0.0
2014-Nov-16 11:31N 39°27' W 000°19'0 0.0
2014-Nov-16 10:31N 39°27' W 000°19'0 0.0
2014-Nov-16 09:31N 39°27' W 000°19'0 0.0
2014-Nov-16 08:31N 39°27' W 000°19'0 0.0
2014-Nov-16 07:33N 39°27' W 000°19'0 0.0
2014-Nov-16 06:33N 39°27' W 000°19'0 0.0
2014-Nov-16 05:33N 39°27' W 000°19'5 4.8
2014-Nov-16 04:33N 39°25' W 000°13'1111.4
2014-Nov-16 03:33N 39°27' E 000°02'57 6.3
2014-Nov-15 18:31N 39°60' E 001°02'1010.9
2014-Nov-15 17:33N 40°09' E 001°10'1111.4
2014-Nov-15 16:33N 40°18' E 001°18'1212.1
2014-Nov-15 15:33N 40°28' E 001°27'1212.0
2014-Nov-15 14:33N 40°38' E 001°36'1211.8
2014-Nov-15 13:33N 40°48' E 001°45'1111.3
2014-Nov-15 12:33N 40°57' E 001°53'1111.1
2014-Nov-15 11:33N 41°06' E 002°02'16 3.0
2014-Nov-15 06:07N 41°21' E 002°10'0 0.0
2014-Nov-15 03:29N 41°21' E 002°10'0 0.0
2014-Nov-15 02:31N 41°21' E 002°10'0 0.0
2014-Nov-15 00:28N 41°21' E 002°10'5 1.4
2014-Nov-14 21:10N 41°17' E 002°12'1 0.9
2014-Nov-14 20:16N 41°17' E 002°14'5 6.8
2014-Nov-14 19:33N 41°17' E 002°20'8 8.1
2014-Nov-14 18:33N 41°17' E 002°31'9 8.7
2014-Nov-14 17:33N 41°23' E 002°40'9 9.1
2014-Nov-14 16:33N 41°29' E 002°49'11 9.0
2014-Nov-14 15:18N 41°36' E 003°00'7 8.7
2014-Nov-14 14:30N 41°41' E 003°07'25 8.4
2014-Nov-14 11:31N 41°57' E 003°32'9 8.6
2014-Nov-14 10:31N 42°04' E 003°40'9 8.9
2014-Nov-14 09:34N 42°10' E 003°48'1310.6
2014-Nov-14 08:19N 42°20' E 004°00'1210.7
2014-Nov-14 07:13N 42°29' E 004°11'4011.0
2014-Nov-14 03:33N 42°59' E 004°47'1313.4
2014-Nov-14 02:33N 43°10' E 004°58'1313.2
2014-Nov-14 01:33N 43°23' E 004°57'5 4.8
2014-Nov-14 00:31N 43°25' E 004°51'0 0.0
2014-Nov-13 23:25N 43°25' E 004°51'0 0.0
2014-Nov-13 22:31N 43°25' E 004°51'0 0.0
2014-Nov-13 21:31N 43°25' E 004°51'0 0.0
2014-Nov-13 20:31N 43°25' E 004°51'0 0.0
2014-Nov-13 19:31N 43°25' E 004°51'0 0.0
2014-Nov-13 18:31N 43°25' E 004°51'  

Dump ship's entire track history